sensor_id;sensor_type;location;lat;lon;timestamp;temperature;humidity
12655;DHT22;6392;44.644;11.448;2023-10-08T00:02:11;19.60;99.90
12655;DHT22;6392;44.644;11.448;2023-10-08T00:04:49;19.60;99.90
12655;DHT22;6392;44.644;11.448;2023-10-08T00:07:17;19.60;99.90
12655;DHT22;6392;44.644;11.448;2023-10-08T00:09:50;19.60;99.90
12655;DHT22;6392;44.644;11.448;2023-10-08T00:12:18;19.60;99.90
12655;DHT22;6392;44.644;11.448;2023-10-08T00:14:46;19.50;99.90
12655;DHT22;6392;44.644;11.448;2023-10-08T00:17:15;19.50;99.90
12655;DHT22;6392;44.644;11.448;2023-10-08T00:19:43;19.50;99.90
12655;DHT22;6392;44.644;11.448;2023-10-08T00:22:11;19.50;99.90
12655;DHT22;6392;44.644;11.448;2023-10-08T00:24:44;19.50;99.90
12655;DHT22;6392;44.644;11.448;2023-10-08T00:27:15;19.50;99.90
12655;DHT22;6392;44.644;11.448;2023-10-08T00:29:43;19.40;99.90
12655;DHT22;6392;44.644;11.448;2023-10-08T00:32:10;19.30;99.90
12655;DHT22;6392;44.644;11.448;2023-10-08T00:34:41;19.30;99.90
12655;DHT22;6392;44.644;11.448;2023-10-08T00:37:10;19.30;99.90
12655;DHT22;6392;44.644;11.448;2023-10-08T00:39:40;19.30;99.90
12655;DHT22;6392;44.644;11.448;2023-10-08T00:42:08;19.30;99.90
12655;DHT22;6392;44.644;11.448;2023-10-08T00:44:35;19.20;99.90
12655;DHT22;6392;44.644;11.448;2023-10-08T00:47:13;19.20;99.90
12655;DHT22;6392;44.644;11.448;2023-10-08T00:49:41;19.20;99.90
12655;DHT22;6392;44.644;11.448;2023-10-08T00:52:35;19.30;99.90
12655;DHT22;6392;44.644;11.448;2023-10-08T00:55:09;19.40;99.90
12655;DHT22;6392;44.644;11.448;2023-10-08T00:57:47;19.30;99.90
12655;DHT22;6392;44.644;11.448;2023-10-08T01:00:16;19.30;99.90
12655;DHT22;6392;44.644;11.448;2023-10-08T01:02:46;19.30;99.90
12655;DHT22;6392;44.644;11.448;2023-10-08T01:05:16;19.30;99.90
12655;DHT22;6392;44.644;11.448;2023-10-08T01:07:47;19.30;99.90
12655;DHT22;6392;44.644;11.448;2023-10-08T01:10:17;19.30;99.90
12655;DHT22;6392;44.644;11.448;2023-10-08T01:12:46;19.30;99.90
12655;DHT22;6392;44.644;11.448;2023-10-08T01:15:29;19.30;99.90
12655;DHT22;6392;44.644;11.448;2023-10-08T01:18:01;19.30;99.90
12655;DHT22;6392;44.644;11.448;2023-10-08T01:20:30;19.20;99.90
12655;DHT22;6392;44.644;11.448;2023-10-08T01:23:04;19.20;99.90
12655;DHT22;6392;44.644;11.448;2023-10-08T01:25:36;19.10;99.90
12655;DHT22;6392;44.644;11.448;2023-10-08T01:28:04;19.10;99.90
12655;DHT22;6392;44.644;11.448;2023-10-08T01:30:35;19.10;99.90
12655;DHT22;6392;44.644;11.448;2023-10-08T01:33:08;19.10;99.90
12655;DHT22;6392;44.644;11.448;2023-10-08T01:35:40;19.10;99.90
12655;DHT22;6392;44.644;11.448;2023-10-08T01:38:09;19.10;99.90
12655;DHT22;6392;44.644;11.448;2023-10-08T01:40:40;19.00;99.90
12655;DHT22;6392;44.644;11.448;2023-10-08T01:43:07;19.00;99.90
12655;DHT22;6392;44.644;11.448;2023-10-08T01:45:36;19.00;99.90
12655;DHT22;6392;44.644;11.448;2023-10-08T01:48:06;19.00;99.90
12655;DHT22;6392;44.644;11.448;2023-10-08T01:50:35;19.00;99.90
12655;DHT22;6392;44.644;11.448;2023-10-08T01:53:02;19.10;99.90
12655;DHT22;6392;44.644;11.448;2023-10-08T01:55:34;19.10;99.90
12655;DHT22;6392;44.644;11.448;2023-10-08T01:58:13;19.10;99.90
12655;DHT22;6392;44.644;11.448;2023-10-08T02:00:42;19.20;99.90
12655;DHT22;6392;44.644;11.448;2023-10-08T02:03:11;19.20;99.90
12655;DHT22;6392;44.644;11.448;2023-10-08T02:05:39;19.20;99.90
12655;DHT22;6392;44.644;11.448;2023-10-08T02:08:08;19.20;99.90
12655;DHT22;6392;44.644;11.448;2023-10-08T02:10:38;19.20;99.90
12655;DHT22;6392;44.644;11.448;2023-10-08T02:13:06;19.20;99.90
12655;DHT22;6392;44.644;11.448;2023-10-08T02:15:34;19.20;99.90
12655;DHT22;6392;44.644;11.448;2023-10-08T02:18:02;19.20;99.90
12655;DHT22;6392;44.644;11.448;2023-10-08T02:20:30;19.20;99.90
12655;DHT22;6392;44.644;11.448;2023-10-08T02:22:58;19.20;99.90
12655;DHT22;6392;44.644;11.448;2023-10-08T02:25:26;19.30;99.90
12655;DHT22;6392;44.644;11.448;2023-10-08T02:27:54;19.20;99.90
12655;DHT22;6392;44.644;11.448;2023-10-08T02:30:21;19.20;99.90
12655;DHT22;6392;44.644;11.448;2023-10-08T02:32:48;19.20;99.90
12655;DHT22;6392;44.644;11.448;2023-10-08T02:35:17;19.20;99.90
12655;DHT22;6392;44.644;11.448;2023-10-08T02:37:44;19.20;99.90
12655;DHT22;6392;44.644;11.448;2023-10-08T02:40:12;19.20;99.90
12655;DHT22;6392;44.644;11.448;2023-10-08T02:42:46;19.20;99.90
12655;DHT22;6392;44.644;11.448;2023-10-08T02:45:14;19.20;99.90
12655;DHT22;6392;44.644;11.448;2023-10-08T02:47:43;19.10;99.90
12655;DHT22;6392;44.644;11.448;2023-10-08T02:50:11;19.10;99.90
12655;DHT22;6392;44.644;11.448;2023-10-08T02:52:42;19.10;99.90
12655;DHT22;6392;44.644;11.448;2023-10-08T02:55:11;19.10;99.90
12655;DHT22;6392;44.644;11.448;2023-10-08T02:57:52;19.10;99.90
12655;DHT22;6392;44.644;11.448;2023-10-08T03:00:21;19.00;99.90
12655;DHT22;6392;44.644;11.448;2023-10-08T03:02:48;19.00;99.90
12655;DHT22;6392;44.644;11.448;2023-10-08T03:05:17;19.00;99.90
12655;DHT22;6392;44.644;11.448;2023-10-08T03:07:44;19.00;99.90
12655;DHT22;6392;44.644;11.448;2023-10-08T03:10:16;19.00;99.90
12655;DHT22;6392;44.644;11.448;2023-10-08T03:12:44;19.00;99.90
12655;DHT22;6392;44.644;11.448;2023-10-08T03:15:14;19.00;99.90
12655;DHT22;6392;44.644;11.448;2023-10-08T03:17:55;19.00;99.90
12655;DHT22;6392;44.644;11.448;2023-10-08T03:20:23;18.90;99.90
12655;DHT22;6392;44.644;11.448;2023-10-08T03:23:04;18.90;99.90
12655;DHT22;6392;44.644;11.448;2023-10-08T03:25:38;18.80;99.90
12655;DHT22;6392;44.644;11.448;2023-10-08T03:28:07;18.80;99.90
12655;DHT22;6392;44.644;11.448;2023-10-08T03:30:38;18.80;99.90
12655;DHT22;6392;44.644;11.448;2023-10-08T03:33:16;18.70;99.90
12655;DHT22;6392;44.644;11.448;2023-10-08T03:35:49;18.70;99.90
12655;DHT22;6392;44.644;11.448;2023-10-08T03:38:18;18.60;99.90
12655;DHT22;6392;44.644;11.448;2023-10-08T03:40:54;18.60;99.90
12655;DHT22;6392;44.644;11.448;2023-10-08T03:43:29;18.60;99.90
12655;DHT22;6392;44.644;11.448;2023-10-08T03:46:08;18.50;99.90
12655;DHT22;6392;44.644;11.448;2023-10-08T03:48:42;18.50;99.90
12655;DHT22;6392;44.644;11.448;2023-10-08T03:51:11;18.40;99.90
12655;DHT22;6392;44.644;11.448;2023-10-08T03:53:38;18.40;99.90
12655;DHT22;6392;44.644;11.448;2023-10-08T03:56:24;18.30;99.90
12655;DHT22;6392;44.644;11.448;2023-10-08T03:58:51;18.30;99.90
12655;DHT22;6392;44.644;11.448;2023-10-08T04:01:21;18.30;99.90
12655;DHT22;6392;44.644;11.448;2023-10-08T04:03:51;18.30;99.90
12655;DHT22;6392;44.644;11.448;2023-10-08T04:06:28;18.30;99.90
12655;DHT22;6392;44.644;11.448;2023-10-08T04:08:56;18.30;99.90
12655;DHT22;6392;44.644;11.448;2023-10-08T04:11:38;18.30;99.90
12655;DHT22;6392;44.644;11.448;2023-10-08T04:14:18;18.30;99.90
12655;DHT22;6392;44.644;11.448;2023-10-08T04:16:46;18.30;99.90
12655;DHT22;6392;44.644;11.448;2023-10-08T04:19:19;18.30;99.90
12655;DHT22;6392;44.644;11.448;2023-10-08T04:21:51;18.30;99.90
12655;DHT22;6392;44.644;11.448;2023-10-08T04:24:21;18.30;99.90
12655;DHT22;6392;44.644;11.448;2023-10-08T04:26:57;18.30;99.90
12655;DHT22;6392;44.644;11.448;2023-10-08T04:29:24;18.30;99.90
12655;DHT22;6392;44.644;11.448;2023-10-08T04:31:52;18.30;99.90
12655;DHT22;6392;44.644;11.448;2023-10-08T04:34:29;18.30;99.90
12655;DHT22;6392;44.644;11.448;2023-10-08T04:36:58;18.30;99.90
12655;DHT22;6392;44.644;11.448;2023-10-08T04:39:29;18.20;99.90
12655;DHT22;6392;44.644;11.448;2023-10-08T04:41:59;18.20;99.90
12655;DHT22;6392;44.644;11.448;2023-10-08T04:44:32;18.20;99.90
12655;DHT22;6392;44.644;11.448;2023-10-08T04:46:59;18.20;99.90
12655;DHT22;6392;44.644;11.448;2023-10-08T04:49:33;18.20;99.90
12655;DHT22;6392;44.644;11.448;2023-10-08T04:52:05;18.20;99.90
12655;DHT22;6392;44.644;11.448;2023-10-08T04:54:40;18.20;99.90
12655;DHT22;6392;44.644;11.448;2023-10-08T04:57:12;18.20;99.90
12655;DHT22;6392;44.644;11.448;2023-10-08T04:59:41;18.20;99.90
12655;DHT22;6392;44.644;11.448;2023-10-08T05:02:09;18.10;99.90
12655;DHT22;6392;44.644;11.448;2023-10-08T05:04:47;18.10;99.90
12655;DHT22;6392;44.644;11.448;2023-10-08T05:07:43;18.10;99.90
12655;DHT22;6392;44.644;11.448;2023-10-08T05:10:43;18.10;99.90
12655;DHT22;6392;44.644;11.448;2023-10-08T05:13:41;18.10;99.90
12655;DHT22;6392;44.644;11.448;2023-10-08T05:16:22;18.20;99.90
12655;DHT22;6392;44.644;11.448;2023-10-08T05:19:03;18.20;99.90
12655;DHT22;6392;44.644;11.448;2023-10-08T05:22:04;18.20;99.90
12655;DHT22;6392;44.644;11.448;2023-10-08T05:24:44;18.30;99.90
12655;DHT22;6392;44.644;11.448;2023-10-08T05:27:32;18.20;99.90
12655;DHT22;6392;44.644;11.448;2023-10-08T05:30:23;18.20;99.90
12655;DHT22;6392;44.644;11.448;2023-10-08T05:33:04;18.30;99.90
12655;DHT22;6392;44.644;11.448;2023-10-08T05:35:40;18.20;99.90
12655;DHT22;6392;44.644;11.448;2023-10-08T05:38:22;18.20;99.90
12655;DHT22;6392;44.644;11.448;2023-10-08T05:40:49;18.20;99.90
12655;DHT22;6392;44.644;11.448;2023-10-08T05:43:42;18.10;99.90
12655;DHT22;6392;44.644;11.448;2023-10-08T05:46:21;18.00;99.90
12655;DHT22;6392;44.644;11.448;2023-10-08T05:49:12;18.00;99.90
12655;DHT22;6392;44.644;11.448;2023-10-08T05:51:52;18.00;99.90
12655;DHT22;6392;44.644;11.448;2023-10-08T05:54:34;18.10;99.90
12655;DHT22;6392;44.644;11.448;2023-10-08T05:57:13;18.10;99.90
12655;DHT22;6392;44.644;11.448;2023-10-08T05:59:50;18.10;99.90
12655;DHT22;6392;44.644;11.448;2023-10-08T06:02:34;18.10;99.90
12655;DHT22;6392;44.644;11.448;2023-10-08T06:05:26;18.10;99.90
12655;DHT22;6392;44.644;11.448;2023-10-08T06:07:58;18.20;99.90
12655;DHT22;6392;44.644;11.448;2023-10-08T06:10:38;18.20;99.90
12655;DHT22;6392;44.644;11.448;2023-10-08T06:13:22;18.20;99.90
12655;DHT22;6392;44.644;11.448;2023-10-08T06:15:57;18.20;99.90
12655;DHT22;6392;44.644;11.448;2023-10-08T06:18:34;18.20;99.90
12655;DHT22;6392;44.644;11.448;2023-10-08T06:21:01;18.20;99.90
12655;DHT22;6392;44.644;11.448;2023-10-08T06:23:34;18.30;99.90
12655;DHT22;6392;44.644;11.448;2023-10-08T06:26:03;18.30;99.90
12655;DHT22;6392;44.644;11.448;2023-10-08T06:28:40;18.40;99.90
12655;DHT22;6392;44.644;11.448;2023-10-08T06:31:08;18.40;99.90
12655;DHT22;6392;44.644;11.448;2023-10-08T06:33:42;18.40;99.90
12655;DHT22;6392;44.644;11.448;2023-10-08T06:36:10;18.40;99.90
12655;DHT22;6392;44.644;11.448;2023-10-08T06:38:42;18.50;99.90
12655;DHT22;6392;44.644;11.448;2023-10-08T06:41:12;18.50;99.90
12655;DHT22;6392;44.644;11.448;2023-10-08T06:43:44;18.60;99.90
12655;DHT22;6392;44.644;11.448;2023-10-08T06:46:13;18.70;99.90
12655;DHT22;6392;44.644;11.448;2023-10-08T06:48:41;18.70;99.90
12655;DHT22;6392;44.644;11.448;2023-10-08T06:51:09;18.80;99.90
12655;DHT22;6392;44.644;11.448;2023-10-08T06:53:39;18.80;99.90
12655;DHT22;6392;44.644;11.448;2023-10-08T06:56:06;18.90;99.90
12655;DHT22;6392;44.644;11.448;2023-10-08T06:58:37;19.00;99.90
12655;DHT22;6392;44.644;11.448;2023-10-08T07:01:04;19.00;99.90
12655;DHT22;6392;44.644;11.448;2023-10-08T07:03:35;19.10;99.90
12655;DHT22;6392;44.644;11.448;2023-10-08T07:06:04;19.20;99.90
12655;DHT22;6392;44.644;11.448;2023-10-08T07:08:43;19.30;99.90
12655;DHT22;6392;44.644;11.448;2023-10-08T07:11:12;19.40;99.90
12655;DHT22;6392;44.644;11.448;2023-10-08T07:13:41;19.50;99.90
12655;DHT22;6392;44.644;11.448;2023-10-08T07:16:08;19.60;99.90
12655;DHT22;6392;44.644;11.448;2023-10-08T07:18:37;19.80;99.90
12655;DHT22;6392;44.644;11.448;2023-10-08T07:21:04;19.90;99.90
12655;DHT22;6392;44.644;11.448;2023-10-08T07:23:38;20.00;99.90
12655;DHT22;6392;44.644;11.448;2023-10-08T07:26:21;20.10;99.90
12655;DHT22;6392;44.644;11.448;2023-10-08T07:28:51;20.20;99.90
12655;DHT22;6392;44.644;11.448;2023-10-08T07:31:19;20.30;99.90
12655;DHT22;6392;44.644;11.448;2023-10-08T07:33:48;20.40;99.90
12655;DHT22;6392;44.644;11.448;2023-10-08T07:36:22;20.40;99.90
12655;DHT22;6392;44.644;11.448;2023-10-08T07:38:49;20.50;99.90
12655;DHT22;6392;44.644;11.448;2023-10-08T07:41:16;20.60;99.90
12655;DHT22;6392;44.644;11.448;2023-10-08T07:43:45;20.60;99.90
12655;DHT22;6392;44.644;11.448;2023-10-08T07:46:20;20.70;99.90
12655;DHT22;6392;44.644;11.448;2023-10-08T07:48:47;20.80;99.90
12655;DHT22;6392;44.644;11.448;2023-10-08T07:51:15;20.80;99.90
12655;DHT22;6392;44.644;11.448;2023-10-08T07:53:47;20.80;99.90
12655;DHT22;6392;44.644;11.448;2023-10-08T07:56:14;20.80;99.90
12655;DHT22;6392;44.644;11.448;2023-10-08T07:58:43;20.90;99.90
12655;DHT22;6392;44.644;11.448;2023-10-08T08:01:10;20.90;99.90
12655;DHT22;6392;44.644;11.448;2023-10-08T08:03:41;20.90;99.90
12655;DHT22;6392;44.644;11.448;2023-10-08T08:06:08;21.00;99.90
12655;DHT22;6392;44.644;11.448;2023-10-08T08:08:37;21.00;99.90
12655;DHT22;6392;44.644;11.448;2023-10-08T08:11:04;21.10;99.90
12655;DHT22;6392;44.644;11.448;2023-10-08T08:13:38;21.10;99.90
12655;DHT22;6392;44.644;11.448;2023-10-08T08:16:07;21.10;99.90
12655;DHT22;6392;44.644;11.448;2023-10-08T08:18:45;21.20;99.90
12655;DHT22;6392;44.644;11.448;2023-10-08T08:21:13;21.30;99.90
12655;DHT22;6392;44.644;11.448;2023-10-08T08:23:42;21.30;99.90
12655;DHT22;6392;44.644;11.448;2023-10-08T08:26:16;21.30;99.90
12655;DHT22;6392;44.644;11.448;2023-10-08T08:28:54;21.30;99.90
12655;DHT22;6392;44.644;11.448;2023-10-08T08:31:23;21.40;99.90
12655;DHT22;6392;44.644;11.448;2023-10-08T08:33:52;21.40;99.90
12655;DHT22;6392;44.644;11.448;2023-10-08T08:36:22;21.50;99.90
12655;DHT22;6392;44.644;11.448;2023-10-08T08:38:50;21.60;99.90
12655;DHT22;6392;44.644;11.448;2023-10-08T08:41:17;21.60;99.90
12655;DHT22;6392;44.644;11.448;2023-10-08T08:43:47;21.60;99.90
12655;DHT22;6392;44.644;11.448;2023-10-08T08:46:15;21.70;99.90
12655;DHT22;6392;44.644;11.448;2023-10-08T08:48:43;21.80;99.90
12655;DHT22;6392;44.644;11.448;2023-10-08T08:51:13;21.80;99.90
12655;DHT22;6392;44.644;11.448;2023-10-08T08:53:40;21.80;99.90
12655;DHT22;6392;44.644;11.448;2023-10-08T08:56:08;21.80;99.90
12655;DHT22;6392;44.644;11.448;2023-10-08T08:58:36;21.90;99.90
12655;DHT22;6392;44.644;11.448;2023-10-08T09:01:06;21.90;99.90
12655;DHT22;6392;44.644;11.448;2023-10-08T09:03:35;21.90;99.90
12655;DHT22;6392;44.644;11.448;2023-10-08T09:06:03;21.90;99.90
12655;DHT22;6392;44.644;11.448;2023-10-08T09:08:36;22.00;99.90
12655;DHT22;6392;44.644;11.448;2023-10-08T09:11:03;22.00;99.90
12655;DHT22;6392;44.644;11.448;2023-10-08T09:13:31;22.00;99.90
12655;DHT22;6392;44.644;11.448;2023-10-08T09:16:07;22.10;99.90
12655;DHT22;6392;44.644;11.448;2023-10-08T09:18:34;22.10;99.90
12655;DHT22;6392;44.644;11.448;2023-10-08T09:21:11;22.10;99.90
12655;DHT22;6392;44.644;11.448;2023-10-08T09:23:43;22.10;99.90
12655;DHT22;6392;44.644;11.448;2023-10-08T09:26:13;22.20;99.90
12655;DHT22;6392;44.644;11.448;2023-10-08T09:28:44;22.20;99.90
12655;DHT22;6392;44.644;11.448;2023-10-08T09:31:12;22.30;99.90
12655;DHT22;6392;44.644;11.448;2023-10-08T09:33:40;22.30;99.90
12655;DHT22;6392;44.644;11.448;2023-10-08T09:36:09;22.40;99.90
12655;DHT22;6392;44.644;11.448;2023-10-08T09:38:36;22.40;99.90
12655;DHT22;6392;44.644;11.448;2023-10-08T09:41:05;22.50;99.90
12655;DHT22;6392;44.644;11.448;2023-10-08T09:43:34;22.60;99.90
12655;DHT22;6392;44.644;11.448;2023-10-08T09:46:18;22.60;99.90
12655;DHT22;6392;44.644;11.448;2023-10-08T09:48:50;22.70;99.90
12655;DHT22;6392;44.644;11.448;2023-10-08T09:51:18;22.90;99.90
12655;DHT22;6392;44.644;11.448;2023-10-08T09:53:52;23.00;99.90
12655;DHT22;6392;44.644;11.448;2023-10-08T09:56:29;23.10;99.90
12655;DHT22;6392;44.644;11.448;2023-10-08T09:59:00;23.20;99.90
12655;DHT22;6392;44.644;11.448;2023-10-08T10:01:28;23.20;99.90
12655;DHT22;6392;44.644;11.448;2023-10-08T10:03:57;23.30;99.90
12655;DHT22;6392;44.644;11.448;2023-10-08T10:06:26;23.40;99.90
12655;DHT22;6392;44.644;11.448;2023-10-08T10:08:56;23.40;99.90
12655;DHT22;6392;44.644;11.448;2023-10-08T10:11:29;23.50;99.90
12655;DHT22;6392;44.644;11.448;2023-10-08T10:13:59;23.50;99.90
12655;DHT22;6392;44.644;11.448;2023-10-08T10:16:27;23.60;99.90
12655;DHT22;6392;44.644;11.448;2023-10-08T10:18:59;23.70;99.90
12655;DHT22;6392;44.644;11.448;2023-10-08T10:21:29;23.70;99.90
12655;DHT22;6392;44.644;11.448;2023-10-08T10:23:57;23.80;99.90
12655;DHT22;6392;44.644;11.448;2023-10-08T10:26:29;23.90;99.90
12655;DHT22;6392;44.644;11.448;2023-10-08T10:29:23;23.90;99.90
12655;DHT22;6392;44.644;11.448;2023-10-08T10:31:53;24.00;99.90
12655;DHT22;6392;44.644;11.448;2023-10-08T10:34:23;24.00;99.90
12655;DHT22;6392;44.644;11.448;2023-10-08T10:36:53;24.10;99.90
12655;DHT22;6392;44.644;11.448;2023-10-08T10:39:25;24.10;99.90
12655;DHT22;6392;44.644;11.448;2023-10-08T10:42:00;24.10;99.90
12655;DHT22;6392;44.644;11.448;2023-10-08T10:44:29;24.10;99.90
12655;DHT22;6392;44.644;11.448;2023-10-08T10:46:58;24.10;99.90
12655;DHT22;6392;44.644;11.448;2023-10-08T10:49:43;24.10;99.90
12655;DHT22;6392;44.644;11.448;2023-10-08T10:52:20;24.20;99.90
12655;DHT22;6392;44.644;11.448;2023-10-08T10:55:01;24.20;99.90
12655;DHT22;6392;44.644;11.448;2023-10-08T10:57:48;24.30;99.90
12655;DHT22;6392;44.644;11.448;2023-10-08T11:00:22;24.40;99.90
12655;DHT22;6392;44.644;11.448;2023-10-08T11:03:07;24.50;99.90
12655;DHT22;6392;44.644;11.448;2023-10-08T11:05:44;24.50;99.90
12655;DHT22;6392;44.644;11.448;2023-10-08T11:08:15;24.50;99.90
12655;DHT22;6392;44.644;11.448;2023-10-08T11:10:45;24.50;99.90
12655;DHT22;6392;44.644;11.448;2023-10-08T11:13:19;24.60;99.90
12655;DHT22;6392;44.644;11.448;2023-10-08T11:15:48;24.70;99.90
12655;DHT22;6392;44.644;11.448;2023-10-08T11:18:26;24.70;99.90
12655;DHT22;6392;44.644;11.448;2023-10-08T11:21:05;24.70;99.90
12655;DHT22;6392;44.644;11.448;2023-10-08T11:23:42;24.90;99.90
12655;DHT22;6392;44.644;11.448;2023-10-08T11:26:12;25.00;99.90
12655;DHT22;6392;44.644;11.448;2023-10-08T11:28:43;25.10;99.90
12655;DHT22;6392;44.644;11.448;2023-10-08T11:31:13;25.10;99.90
12655;DHT22;6392;44.644;11.448;2023-10-08T11:33:50;25.20;99.90
12655;DHT22;6392;44.644;11.448;2023-10-08T11:36:23;25.30;99.90
12655;DHT22;6392;44.644;11.448;2023-10-08T11:38:55;25.40;99.90
12655;DHT22;6392;44.644;11.448;2023-10-08T11:41:28;25.50;99.90
12655;DHT22;6392;44.644;11.448;2023-10-08T11:43:57;25.60;99.90
12655;DHT22;6392;44.644;11.448;2023-10-08T11:46:27;25.60;99.90
12655;DHT22;6392;44.644;11.448;2023-10-08T11:48:58;25.70;99.90
12655;DHT22;6392;44.644;11.448;2023-10-08T11:51:31;25.70;99.90
12655;DHT22;6392;44.644;11.448;2023-10-08T11:53:58;25.70;99.90
12655;DHT22;6392;44.644;11.448;2023-10-08T11:56:27;25.70;99.90
12655;DHT22;6392;44.644;11.448;2023-10-08T11:58:56;25.70;99.90
12655;DHT22;6392;44.644;11.448;2023-10-08T12:01:24;25.70;99.90
12655;DHT22;6392;44.644;11.448;2023-10-08T12:03:52;25.90;99.90
12655;DHT22;6392;44.644;11.448;2023-10-08T12:06:25;26.00;99.90
12655;DHT22;6392;44.644;11.448;2023-10-08T12:08:55;26.00;99.90
12655;DHT22;6392;44.644;11.448;2023-10-08T12:11:24;26.00;99.90
12655;DHT22;6392;44.644;11.448;2023-10-08T12:13:58;26.20;99.90
12655;DHT22;6392;44.644;11.448;2023-10-08T12:16:26;26.30;99.90
12655;DHT22;6392;44.644;11.448;2023-10-08T12:18:56;26.50;99.90
12655;DHT22;6392;44.644;11.448;2023-10-08T12:21:24;26.60;99.90
12655;DHT22;6392;44.644;11.448;2023-10-08T12:23:51;26.70;99.90
12655;DHT22;6392;44.644;11.448;2023-10-08T12:26:20;26.70;99.90
12655;DHT22;6392;44.644;11.448;2023-10-08T12:28:48;26.80;99.90
12655;DHT22;6392;44.644;11.448;2023-10-08T12:31:16;27.10;99.90
12655;DHT22;6392;44.644;11.448;2023-10-08T12:33:47;27.30;99.90
12655;DHT22;6392;44.644;11.448;2023-10-08T12:36:15;27.60;99.90
12655;DHT22;6392;44.644;11.448;2023-10-08T12:38:43;27.70;99.90
12655;DHT22;6392;44.644;11.448;2023-10-08T12:41:11;28.00;99.90
12655;DHT22;6392;44.644;11.448;2023-10-08T12:43:38;28.20;99.90
12655;DHT22;6392;44.644;11.448;2023-10-08T12:46:08;28.40;99.90
12655;DHT22;6392;44.644;11.448;2023-10-08T12:48:45;28.50;99.90
12655;DHT22;6392;44.644;11.448;2023-10-08T12:51:16;28.40;99.90
12655;DHT22;6392;44.644;11.448;2023-10-08T12:53:43;28.30;99.90
12655;DHT22;6392;44.644;11.448;2023-10-08T12:56:17;28.20;99.90
12655;DHT22;6392;44.644;11.448;2023-10-08T12:58:47;28.10;99.90
12655;DHT22;6392;44.644;11.448;2023-10-08T13:01:19;27.90;99.90
12655;DHT22;6392;44.644;11.448;2023-10-08T13:03:48;27.70;99.90
12655;DHT22;6392;44.644;11.448;2023-10-08T13:06:16;27.70;99.90
12655;DHT22;6392;44.644;11.448;2023-10-08T13:08:49;27.70;99.90
12655;DHT22;6392;44.644;11.448;2023-10-08T13:11:18;27.70;99.90
12655;DHT22;6392;44.644;11.448;2023-10-08T13:13:49;27.70;99.90
12655;DHT22;6392;44.644;11.448;2023-10-08T13:16:17;27.70;99.90
12655;DHT22;6392;44.644;11.448;2023-10-08T13:18:48;27.90;99.90
12655;DHT22;6392;44.644;11.448;2023-10-08T13:21:16;28.00;99.90
12655;DHT22;6392;44.644;11.448;2023-10-08T13:23:44;29.90;99.90
12655;DHT22;6392;44.644;11.448;2023-10-08T13:26:12;28.30;99.90
12655;DHT22;6392;44.644;11.448;2023-10-08T13:28:43;28.20;99.90
12655;DHT22;6392;44.644;11.448;2023-10-08T13:31:11;28.30;99.90
12655;DHT22;6392;44.644;11.448;2023-10-08T13:33:39;28.50;99.90
12655;DHT22;6392;44.644;11.448;2023-10-08T13:36:10;28.90;99.90
12655;DHT22;6392;44.644;11.448;2023-10-08T13:38:39;29.20;99.90
12655;DHT22;6392;44.644;11.448;2023-10-08T13:41:09;29.40;99.90
12655;DHT22;6392;44.644;11.448;2023-10-08T13:43:43;29.40;99.90
12655;DHT22;6392;44.644;11.448;2023-10-08T13:46:13;29.30;99.90
12655;DHT22;6392;44.644;11.448;2023-10-08T13:48:43;29.20;99.90
12655;DHT22;6392;44.644;11.448;2023-10-08T13:51:16;29.00;99.90
12655;DHT22;6392;44.644;11.448;2023-10-08T13:53:48;28.80;99.90
12655;DHT22;6392;44.644;11.448;2023-10-08T13:56:18;28.70;99.90
12655;DHT22;6392;44.644;11.448;2023-10-08T13:58:46;28.40;99.90
12655;DHT22;6392;44.644;11.448;2023-10-08T14:01:15;28.30;99.90
12655;DHT22;6392;44.644;11.448;2023-10-08T14:03:48;28.20;99.90
12655;DHT22;6392;44.644;11.448;2023-10-08T14:06:20;28.10;99.90
12655;DHT22;6392;44.644;11.448;2023-10-08T14:08:48;28.10;99.90
12655;DHT22;6392;44.644;11.448;2023-10-08T14:11:19;28.10;99.90
12655;DHT22;6392;44.644;11.448;2023-10-08T14:13:49;28.20;99.90
12655;DHT22;6392;44.644;11.448;2023-10-08T14:16:20;28.30;99.90
12655;DHT22;6392;44.644;11.448;2023-10-08T14:18:53;28.20;99.90
12655;DHT22;6392;44.644;11.448;2023-10-08T14:21:23;28.20;99.90
12655;DHT22;6392;44.644;11.448;2023-10-08T14:23:56;26.90;99.90
12655;DHT22;6392;44.644;11.448;2023-10-08T14:26:28;28.20;99.90
12655;DHT22;6392;44.644;11.448;2023-10-08T14:29:01;28.20;99.90
12655;DHT22;6392;44.644;11.448;2023-10-08T14:31:34;28.20;99.90
12655;DHT22;6392;44.644;11.448;2023-10-08T14:34:05;28.20;99.90
12655;DHT22;6392;44.644;11.448;2023-10-08T14:36:48;28.20;99.90
12655;DHT22;6392;44.644;11.448;2023-10-08T14:39:35;28.10;99.90
12655;DHT22;6392;44.644;11.448;2023-10-08T14:42:20;27.90;99.90
12655;DHT22;6392;44.644;11.448;2023-10-08T14:45:06;27.70;99.90
12655;DHT22;6392;44.644;11.448;2023-10-08T14:47:36;27.80;99.90
12655;DHT22;6392;44.644;11.448;2023-10-08T14:50:05;27.70;99.90
12655;DHT22;6392;44.644;11.448;2023-10-08T14:52:43;27.70;99.90
12655;DHT22;6392;44.644;11.448;2023-10-08T14:55:11;27.80;99.90
12655;DHT22;6392;44.644;11.448;2023-10-08T14:57:39;28.00;99.90
12655;DHT22;6392;44.644;11.448;2023-10-08T15:00:08;28.10;99.90
12655;DHT22;6392;44.644;11.448;2023-10-08T15:02:36;28.10;99.90
12655;DHT22;6392;44.644;11.448;2023-10-08T15:05:05;28.20;99.90
12655;DHT22;6392;44.644;11.448;2023-10-08T15:07:33;28.20;99.90
12655;DHT22;6392;44.644;11.448;2023-10-08T15:10:02;28.10;99.90
12655;DHT22;6392;44.644;11.448;2023-10-08T15:12:32;28.10;99.90
12655;DHT22;6392;44.644;11.448;2023-10-08T15:15:10;28.10;99.90
12655;DHT22;6392;44.644;11.448;2023-10-08T15:17:40;28.10;99.90
12655;DHT22;6392;44.644;11.448;2023-10-08T15:20:10;28.10;99.90
12655;DHT22;6392;44.644;11.448;2023-10-08T15:22:41;28.00;99.90
12655;DHT22;6392;44.644;11.448;2023-10-08T15:25:11;27.80;99.90
12655;DHT22;6392;44.644;11.448;2023-10-08T15:27:40;28.00;99.90
12655;DHT22;6392;44.644;11.448;2023-10-08T15:30:12;28.00;99.90
12655;DHT22;6392;44.644;11.448;2023-10-08T15:32:45;27.80;99.90
12655;DHT22;6392;44.644;11.448;2023-10-08T15:35:16;27.60;99.90
12655;DHT22;6392;44.644;11.448;2023-10-08T15:37:46;27.60;99.90
12655;DHT22;6392;44.644;11.448;2023-10-08T15:40:18;27.60;99.90
12655;DHT22;6392;44.644;11.448;2023-10-08T15:42:48;27.70;99.90
12655;DHT22;6392;44.644;11.448;2023-10-08T15:45:17;27.80;99.90
12655;DHT22;6392;44.644;11.448;2023-10-08T15:47:44;27.80;99.90
12655;DHT22;6392;44.644;11.448;2023-10-08T15:50:11;27.80;99.90
12655;DHT22;6392;44.644;11.448;2023-10-08T15:52:38;27.90;99.90
12655;DHT22;6392;44.644;11.448;2023-10-08T15:55:07;27.80;99.90
12655;DHT22;6392;44.644;11.448;2023-10-08T15:57:41;27.90;99.90
12655;DHT22;6392;44.644;11.448;2023-10-08T16:00:16;27.90;99.90